Terminal Aerodrome Forecast
Issued by NWS

Home | Current Version | Previous Version | Text Only | Print | Product List | Glossary On
Versions: 1 2 3 4 5 6 7 8 9 10 11 12 13
000
FTUS43 KICT 311126
TAFSLN
TAF
KSLN 311126Z 3112/0112 36014G20KT P6SM BKN025
     FM311600 03014G21KT P6SM SCT030
     FM312300 06006KT P6SM SCT250
     FM010200 VRB03KT P6SM SCT060 SCT250=

USA.gov is the U.S. government's official web portal to all federal, state and local government web resources and services.